Time;durP1;ratioP1;P1;durP2;ratioP2;P2;SDS_P1;SDS_P2;PMS_P1;PMS_P2;Temp;Humidity;BMP_temperature;BMP_pressure;BME280_temperature;BME280_humidity;BME280_pressure;Samples;Min_cycle;Max_cycle;Signal;HPM_P1;HPM_P2
2024/01/30 00:01:55;;;;;;;1999.90;999.90;;;4.70;99.90;;;;;;5010948;28;20069;-77
2024/01/30 00:04:21;;;;;;;1999.90;999.90;;;4.70;99.90;;;;;;4994854;28;20034;-79
2024/01/30 00:06:46;;;;;;;1999.90;999.90;;;4.60;99.90;;;;;;5010738;28;20046;-78
2024/01/30 00:09:12;;;;;;;1999.90;999.90;;;4.60;99.90;;;;;;5010329;28;20046;-77
2024/01/30 00:11:38;;;;;;;1999.90;999.90;;;4.60;99.90;;;;;;5010309;28;20038;-78
2024/01/30 00:14:04;;;;;;;1999.90;999.90;;;5.00;99.90;;;;;;5009852;28;20044;-78
2024/01/30 00:16:30;;;;;;;1999.90;999.90;;;4.70;99.90;;;;;;4993891;28;20053;-78
2024/01/30 00:18:56;;;;;;;1999.90;999.90;;;4.70;99.90;;;;;;5010351;28;20100;-78
2024/01/30 00:21:22;;;;;;;1999.90;999.90;;;4.70;99.90;;;;;;5010459;28;20269;-78
2024/01/30 00:23:47;;;;;;;1999.90;999.90;;;4.70;99.90;;;;;;5010356;28;20066;-77
2024/01/30 00:26:14;;;;;;;1999.90;999.90;;;5.60;99.90;;;;;;4994065;28;20462;-77
2024/01/30 00:28:43;;;;;;;1999.90;999.90;;;4.70;99.90;;;;;;4994478;28;20038;-79
2024/01/30 00:31:12;;;;;;;1999.90;999.90;;;4.80;99.90;;;;;;4994317;28;20064;-79
2024/01/30 00:33:41;;;;;;;1999.90;999.90;;;4.80;99.90;;;;;;4994181;28;20037;-78
2024/01/30 00:36:08;;;;;;;1999.90;999.90;;;4.80;99.90;;;;;;4993785;28;20073;-79
2024/01/30 00:38:34;;;;;;;1999.90;999.90;;;4.80;99.90;;;;;;4994236;28;20033;-78
2024/01/30 00:41:01;;;;;;;1999.90;999.90;;;4.80;99.90;;;;;;4993824;28;20067;-79
2024/01/30 00:43:27;;;;;;;1999.90;999.90;;;4.80;99.90;;;;;;4994225;28;20029;-78
2024/01/30 00:45:53;;;;;;;1999.90;999.90;;;4.90;99.90;;;;;;4994232;28;20598;-79
2024/01/30 00:48:18;;;;;;;1999.90;999.90;;;5.10;99.90;;;;;;5010430;28;20065;-78
2024/01/30 00:50:44;;;;;;;1999.90;999.90;;;4.80;99.90;;;;;;4993961;28;20064;-78
2024/01/30 00:53:10;;;;;;;1999.90;999.90;;;4.90;99.90;;;;;;4993646;28;20064;-78
2024/01/30 00:55:35;;;;;;;1999.90;999.90;;;5.60;99.90;;;;;;4992929;28;20077;-79
2024/01/30 00:58:01;;;;;;;1999.90;999.90;;;4.90;99.90;;;;;;4994178;28;20038;-78
2024/01/30 01:00:29;;;;;;;1999.90;999.90;;;4.90;99.90;;;;;;4993448;28;20034;-78
2024/01/30 01:02:55;;;;;;;1999.90;999.90;;;5.60;99.90;;;;;;5010153;28;20117;-78
2024/01/30 01:05:21;;;;;;;1999.90;999.90;;;4.90;99.90;;;;;;5009748;28;20034;-78
2024/01/30 01:07:49;;;;;;;1999.90;999.90;;;4.90;99.90;;;;;;5010576;28;20073;-78
2024/01/30 01:10:18;;;;;;;1999.90;999.90;;;4.80;99.90;;;;;;4993638;28;20081;-78
2024/01/30 01:12:44;;;;;;;1999.90;999.90;;;4.80;99.90;;;;;;5009696;28;20046;-78
2024/01/30 01:15:10;;;;;;;1999.90;999.90;;;5.60;99.90;;;;;;5010028;28;20049;-79
2024/01/30 01:17:37;;;;;;;1999.90;999.90;;;4.70;99.90;;;;;;5009659;28;20042;-78
2024/01/30 01:20:05;;;;;;;1999.90;999.90;;;4.70;99.90;;;;;;4993737;28;20048;-79
2024/01/30 01:22:31;;;;;;;1999.90;999.90;;;4.70;99.90;;;;;;4993543;28;20040;-78
2024/01/30 01:24:56;;;;;;;1999.90;999.90;;;5.00;99.90;;;;;;5010446;28;20399;-79
2024/01/30 01:27:22;;;;;;;1999.90;999.90;;;4.70;99.90;;;;;;5013129;28;20048;-78
2024/01/30 01:29:48;;;;;;;1999.90;999.90;;;4.70;99.90;;;;;;5013515;28;20080;-79
2024/01/30 01:32:13;;;;;;;1999.90;999.90;;;4.70;99.90;;;;;;4997856;28;20074;-78
2024/01/30 01:34:39;;;;;;;1999.90;999.90;;;4.70;99.90;;;;;;4997334;28;20041;-78
2024/01/30 01:37:04;;;;;;;1999.90;999.90;;;4.70;99.90;;;;;;5013608;28;20038;-78
2024/01/30 01:39:30;;;;;;;1999.90;999.90;;;4.70;99.90;;;;;;4997035;28;20387;-78
2024/01/30 01:41:56;;;;;;;1999.90;999.90;;;4.80;99.90;;;;;;5013198;28;20038;-79
2024/01/30 01:44:21;;;;;;;1999.90;999.90;;;4.80;99.90;;;;;;5013654;28;20429;-77
2024/01/30 01:46:47;;;;;;;1999.90;999.90;;;4.90;99.90;;;;;;4997095;28;20068;-79
2024/01/30 01:49:14;;;;;;;1999.90;999.90;;;4.90;99.90;;;;;;5013941;28;20422;-78
2024/01/30 01:51:42;;;;;;;1999.90;999.90;;;5.50;99.90;;;;;;5013493;28;20034;-78
2024/01/30 01:54:08;;;;;;;1999.90;999.90;;;4.90;99.90;;;;;;5013334;28;20046;-79
2024/01/30 01:56:34;;;;;;;1999.90;999.90;;;4.90;99.90;;;;;;5012391;28;20053;-77
2024/01/30 01:59:06;;;;;;;1999.90;999.90;;;4.90;99.90;;;;;;4996558;28;20045;-77
2024/01/30 02:01:32;;;;;;;1999.90;999.90;;;4.90;99.90;;;;;;5012819;28;20113;-79
2024/01/30 02:03:59;;;;;;;1999.90;999.90;;;4.90;99.90;;;;;;5012556;28;20561;-78
2024/01/30 02:06:25;;;;;;;1999.90;999.90;;;4.90;99.90;;;;;;4996116;28;20092;-78
2024/01/30 02:08:51;;;;;;;1999.90;999.90;;;5.50;99.90;;;;;;4995971;28;20042;-78
2024/01/30 02:11:18;;;;;;;1999.90;999.90;;;4.80;99.90;;;;;;5012268;28;20052;-78
2024/01/30 02:13:43;;;;;;;1999.90;999.90;;;4.80;99.90;;;;;;4996033;28;20124;-78
2024/01/30 02:16:09;;;;;;;1999.90;999.90;;;4.80;99.90;;;;;;5012706;28;20125;-79
2024/01/30 02:18:35;;;;;;;1999.90;999.90;;;4.80;99.90;;;;;;4996323;28;20049;-78
2024/01/30 02:21:04;;;;;;;1999.90;999.90;;;4.80;99.90;;;;;;4996947;28;20034;-78
2024/01/30 02:23:32;;;;;;;1999.90;999.90;;;4.80;99.90;;;;;;5012679;28;20038;-78
2024/01/30 02:25:57;;;;;;;1999.90;999.90;;;4.80;99.90;;;;;;5009267;28;20041;-77
2024/01/30 02:28:23;;;;;;;1999.90;999.90;;;4.90;99.90;;;;;;4996161;28;20046;-78
2024/01/30 02:30:48;;;;;;;1999.90;999.90;;;4.90;99.90;;;;;;4996472;28;20046;-78
2024/01/30 02:33:14;;;;;;;1999.90;999.90;;;4.90;99.90;;;;;;5012858;28;20629;-78
2024/01/30 02:35:40;;;;;;;1999.90;999.90;;;5.00;99.90;;;;;;5012682;28;20136;-78
2024/01/30 02:38:05;;;;;;;1999.90;999.90;;;5.10;99.90;;;;;;5012143;28;20029;-78
2024/01/30 02:40:31;;;;;;;1999.90;999.90;;;5.10;99.90;;;;;;5012897;28;20034;-78
2024/01/30 02:42:59;;;;;;;1999.90;999.90;;;5.20;99.90;;;;;;4996019;28;20038;-78
2024/01/30 02:45:25;;;;;;;1999.90;999.90;;;5.20;99.90;;;;;;5012749;28;20065;-78
2024/01/30 02:47:51;;;;;;;1999.90;999.90;;;5.20;99.90;;;;;;5012460;28;20072;-77
2024/01/30 02:50:17;;;;;;;1999.90;999.90;;;6.20;99.90;;;;;;4997046;28;20117;-78
2024/01/30 02:52:43;;;;;;;1999.90;999.90;;;6.10;99.90;;;;;;5012338;28;20053;-78
2024/01/30 02:55:09;;;;;;;1999.90;999.90;;;5.30;99.90;;;;;;4996439;28;20038;-79
2024/01/30 02:57:35;;;;;;;1999.90;999.90;;;5.30;99.90;;;;;;4995381;28;20038;-78
2024/01/30 03:00:02;;;;;;;1999.90;999.90;;;5.30;99.90;;;;;;4995841;28;20044;-78
2024/01/30 03:02:28;;;;;;;1999.90;999.90;;;5.30;99.90;;;;;;4979787;28;20038;-78
2024/01/30 03:04:54;;;;;;;1999.90;999.90;;;5.30;99.90;;;;;;5012164;28;20048;-79
2024/01/30 03:07:19;;;;;;;1999.90;999.90;;;5.30;99.90;;;;;;4995850;28;20036;-79
2024/01/30 03:09:45;;;;;;;1999.90;999.90;;;5.30;99.90;;;;;;5012067;28;20568;-78
2024/01/30 03:12:10;;;;;;;1999.90;999.90;;;5.30;99.90;;;;;;5011291;28;20030;-78
2024/01/30 03:14:36;;;;;;;1999.90;999.90;;;5.30;99.90;;;;;;4994890;28;20065;-78
2024/01/30 03:17:02;;;;;;;1999.90;999.90;;;5.30;99.90;;;;;;5011511;28;20042;-78
2024/01/30 03:19:28;;;;;;;1999.90;999.90;;;5.30;99.90;;;;;;4995337;28;20046;-78
2024/01/30 03:21:53;;;;;;;1999.90;999.90;;;5.30;99.90;;;;;;5011699;28;20037;-79
2024/01/30 03:24:19;;;;;;;1999.90;999.90;;;5.30;99.90;;;;;;5011704;28;20360;-79
2024/01/30 03:26:45;;;;;;;1999.90;999.90;;;5.30;99.90;;;;;;4994937;28;20072;-78
2024/01/30 03:29:10;;;;;;;1999.90;999.90;;;5.30;99.90;;;;;;5011122;28;20080;-78
2024/01/30 03:31:36;;;;;;;1999.90;999.90;;;5.30;99.90;;;;;;4994806;28;20042;-77
2024/01/30 03:34:02;;;;;;;1999.90;999.90;;;5.30;99.90;;;;;;5011492;28;20038;-79
2024/01/30 03:36:28;;;;;;;1999.90;999.90;;;5.20;99.90;;;;;;4994975;28;20419;-79
2024/01/30 03:38:54;;;;;;;1999.90;999.90;;;5.30;99.90;;;;;;4994941;28;20045;-78
2024/01/30 03:41:19;;;;;;;1999.90;999.90;;;5.30;99.90;;;;;;5010909;28;20048;-78
2024/01/30 03:43:45;;;;;;;1999.90;999.90;;;6.00;99.90;;;;;;5011487;28;20061;-78
2024/01/30 03:46:14;;;;;;;1999.90;999.90;;;5.30;99.90;;;;;;4994502;28;20033;-79
2024/01/30 03:48:39;;;;;;;1999.90;999.90;;;5.30;99.90;;;;;;4995072;28;20164;-77
2024/01/30 03:51:05;;;;;;;1999.90;999.90;;;5.40;99.90;;;;;;4994909;28;20084;-78
2024/01/30 03:53:31;;;;;;;1999.90;999.90;;;6.20;99.90;;;;;;4994757;28;20041;-77
2024/01/30 03:55:57;;;;;;;1999.90;999.90;;;5.40;99.90;;;;;;5010309;28;20041;-78
2024/01/30 03:58:22;;;;;;;1999.90;999.90;;;5.50;99.90;;;;;;4994683;28;20038;-78
2024/01/30 04:00:48;;;;;;;1999.90;999.90;;;5.50;99.90;;;;;;5011384;28;20045;-79
2024/01/30 04:03:17;;;;;;;1999.90;999.90;;;5.50;99.90;;;;;;5011036;28;20038;-78
2024/01/30 04:05:43;;;;;;;1999.90;999.90;;;5.80;99.90;;;;;;5011036;28;20046;-78
2024/01/30 04:08:09;;;;;;;1999.90;999.90;;;5.50;99.90;;;;;;5010503;28;20117;-77
2024/01/30 04:10:35;;;;;;;1999.90;999.90;;;5.50;99.90;;;;;;5010271;28;20081;-77
2024/01/30 04:13:00;;;;;;;1999.90;999.90;;;5.50;99.90;;;;;;5009959;28;20128;-78
2024/01/30 04:15:27;;;;;;;1999.90;999.90;;;5.50;99.90;;;;;;5010279;28;20104;-78
2024/01/30 04:17:52;;;;;;;1999.90;999.90;;;5.60;99.90;;;;;;5010391;28;20044;-78
2024/01/30 04:20:19;;;;;;;1999.90;999.90;;;5.60;99.90;;;;;;5010498;28;20069;-78
2024/01/30 04:22:46;;;;;;;1999.90;999.90;;;5.70;99.90;;;;;;5009856;28;20076;-78
2024/01/30 04:25:13;;;;;;;1999.90;999.90;;;5.70;99.90;;;;;;4993801;28;20033;-78
2024/01/30 04:27:39;;;;;;;1999.90;999.90;;;5.80;99.90;;;;;;4993300;28;20052;-78
2024/01/30 04:30:05;;;;;;;1999.90;999.90;;;5.90;99.90;;;;;;5010147;28;20124;-78
2024/01/30 04:32:31;;;;;;;1999.90;999.90;;;5.90;99.90;;;;;;4977113;28;20096;-77
2024/01/30 04:34:57;;;;;;;1999.90;999.90;;;6.00;99.90;;;;;;5009822;28;20107;-78
2024/01/30 04:37:23;;;;;;;1999.90;999.90;;;6.00;99.90;;;;;;5009792;28;20498;-79
2024/01/30 04:39:49;;;;;;;1999.90;999.90;;;6.00;99.90;;;;;;5010219;28;20042;-78
2024/01/30 04:42:14;;;;;;;1999.90;999.90;;;6.10;99.90;;;;;;4994590;28;20033;-77
2024/01/30 04:44:40;;;;;;;1999.90;999.90;;;6.10;99.90;;;;;;5010830;28;20325;-78
2024/01/30 04:47:08;;;;;;;1999.90;999.90;;;6.10;99.90;;;;;;5009999;28;20041;-78
2024/01/30 04:49:34;;;;;;;1999.90;999.90;;;6.20;99.90;;;;;;5010525;28;20045;-78
2024/01/30 04:52:00;;;;;;;1999.90;999.90;;;6.20;99.90;;;;;;5010097;28;20045;-78
2024/01/30 04:54:25;;;;;;;1999.90;999.90;;;6.20;99.90;;;;;;4994043;28;20033;-78
2024/01/30 04:56:51;;;;;;;1999.90;999.90;;;6.20;99.90;;;;;;5009909;28;20411;-79
2024/01/30 04:59:17;;;;;;;1999.90;999.90;;;6.20;99.90;;;;;;5012607;28;20517;-78
2024/01/30 05:01:42;;;;;;;1999.90;999.90;;;6.20;99.90;;;;;;5012745;28;20112;-78
2024/01/30 05:04:08;;;;;;;1999.90;999.90;;;6.20;99.90;;;;;;5014475;28;20037;-78
2024/01/30 05:06:34;;;;;;;1999.90;999.90;;;6.40;99.90;;;;;;5015128;28;20111;-78
2024/01/30 05:09:00;;;;;;;1999.90;999.90;;;6.40;99.90;;;;;;4997524;28;20037;-78
2024/01/30 05:11:25;;;;;;;1999.90;999.90;;;6.40;99.90;;;;;;4997569;28;20038;-78
2024/01/30 05:13:51;;;;;;;1999.90;999.90;;;6.50;99.90;;;;;;5029317;28;20413;-78
2024/01/30 05:16:16;;;;;;;1999.90;999.90;;;6.50;99.90;;;;;;5013527;28;20049;-78
2024/01/30 05:18:42;;;;;;;1999.90;999.90;;;6.50;99.90;;;;;;5013826;28;20077;-79
2024/01/30 05:21:08;;;;;;;1999.90;999.90;;;6.50;99.90;;;;;;5013344;28;20041;-78
2024/01/30 05:23:33;;;;;;;1999.90;999.90;;;6.50;99.90;;;;;;5013162;28;20057;-78
2024/01/30 05:26:00;;;;;;;1999.90;999.90;;;6.50;99.90;;;;;;4996234;28;20038;-78
2024/01/30 05:28:26;;;;;;;1999.90;999.90;;;6.50;99.90;;;;;;5013740;28;20124;-78
2024/01/30 05:30:52;;;;;;;1999.90;999.90;;;6.60;99.90;;;;;;4997419;28;20063;-78
2024/01/30 05:33:17;;;;;;;1999.90;999.90;;;6.60;99.90;;;;;;4997240;28;20034;-78
2024/01/30 05:35:43;;;;;;;1999.90;999.90;;;6.60;99.90;;;;;;4997736;28;20030;-78
2024/01/30 05:38:08;;;;;;;1999.90;999.90;;;6.60;99.90;;;;;;5013948;28;20099;-78
2024/01/30 05:40:34;;;;;;;1999.90;999.90;;;6.60;99.90;;;;;;4997253;28;20549;-78
2024/01/30 05:43:01;;;;;;;1999.90;999.90;;;6.70;99.90;;;;;;4997453;28;20410;-78
2024/01/30 05:45:27;;;;;;;1999.90;999.90;;;6.60;99.90;;;;;;5013895;28;20041;-78
2024/01/30 05:47:53;;;;;;;1999.90;999.90;;;6.60;99.90;;;;;;5014149;28;20414;-78
2024/01/30 05:50:19;;;;;;;1999.90;999.90;;;6.60;99.90;;;;;;5013694;28;20042;-78
2024/01/30 05:52:45;;;;;;;1999.90;999.90;;;6.60;99.90;;;;;;5014559;28;20038;-78
2024/01/30 05:55:12;;;;;;;1999.90;999.90;;;6.60;99.90;;;;;;5013730;28;20030;-79
2024/01/30 05:57:38;;;;;;;1999.90;999.90;;;6.60;99.90;;;;;;5013726;28;20395;-78
2024/01/30 06:00:05;;;;;;;1999.90;999.90;;;6.90;99.90;;;;;;4997254;28;20046;-77
2024/01/30 06:02:31;;;;;;;1999.90;999.90;;;6.60;99.90;;;;;;5013580;28;20034;-79
2024/01/30 06:04:56;;;;;;;1999.90;999.90;;;6.70;99.90;;;;;;5014304;28;20089;-78
2024/01/30 06:07:22;;;;;;;1999.90;999.90;;;6.60;99.90;;;;;;4997818;28;20125;-78
2024/01/30 06:09:48;;;;;;;1999.90;999.90;;;6.70;99.90;;;;;;5014103;28;20060;-78
2024/01/30 06:12:13;;;;;;;1999.90;999.90;;;6.70;99.90;;;;;;4998497;28;20037;-79
2024/01/30 06:14:39;;;;;;;1999.90;999.90;;;6.80;99.90;;;;;;5000492;28;20097;-80
2024/01/30 06:17:05;;;;;;;1999.90;999.90;;;6.80;99.90;;;;;;5016004;28;20064;-78
2024/01/30 06:19:30;;;;;;;1999.90;999.90;;;6.80;99.90;;;;;;5014622;28;20095;-78
2024/01/30 06:21:57;;;;;;;1999.90;999.90;;;7.00;99.90;;;;;;5000169;28;20041;-83
2024/01/30 06:24:22;;;;;;;1999.90;999.90;;;6.80;99.90;;;;;;5021224;28;20045;-82
2024/01/30 06:26:48;;;;;;;1999.90;999.90;;;7.20;99.90;;;;;;5004052;28;20410;-83
2024/01/30 06:29:14;;;;;;;1999.90;999.90;;;6.90;99.90;;;;;;5004376;28;20034;-82
2024/01/30 06:31:41;;;;;;;1999.90;999.90;;;6.90;99.90;;;;;;5004517;28;20101;-82
2024/01/30 06:34:08;;;;;;;1999.90;999.90;;;6.90;99.90;;;;;;5017209;28;20042;-83
2024/01/30 06:36:34;;;;;;;1999.90;999.90;;;7.40;99.90;;;;;;5003562;28;20034;-82
2024/01/30 06:39:00;;;;;;;1999.90;999.90;;;6.90;99.90;;;;;;5002994;28;20042;-83
2024/01/30 06:41:25;;;;;;;1999.90;999.90;;;7.40;99.90;;;;;;5005557;28;20045;-84
2024/01/30 06:43:52;;;;;;;1999.90;999.90;;;7.30;99.90;;;;;;5021660;28;20037;-83
2024/01/30 06:46:18;;;;;;;1999.90;999.90;;;7.00;99.90;;;;;;5005605;28;20030;-83
2024/01/30 06:48:44;;;;;;;1999.90;999.90;;;8.10;99.90;;;;;;5003025;28;20065;-83
2024/01/30 06:51:12;;;;;;;1999.90;999.90;;;7.70;99.90;;;;;;5003770;28;20094;-83
2024/01/30 06:53:37;;;;;;;1999.90;999.90;;;6.90;99.90;;;;;;4997940;28;20118;-78
2024/01/30 06:56:03;;;;;;;1999.90;999.90;;;7.60;99.90;;;;;;4998203;28;20069;-79
2024/01/30 06:58:29;;;;;;;1999.90;999.90;;;7.00;99.90;;;;;;5017794;28;20037;-80
2024/01/30 07:00:55;;;;;;;1999.90;999.90;;;7.00;99.90;;;;;;4997273;28;20034;-80
2024/01/30 07:03:21;;;;;;;1999.90;999.90;;;7.00;99.90;;;;;;5015574;28;20168;-79
2024/01/30 07:05:47;;;;;;;1999.90;999.90;;;7.70;99.90;;;;;;5016433;28;20528;-79
2024/01/30 07:08:13;;;;;;;1999.90;999.90;;;7.00;99.90;;;;;;5016224;28;20053;-80
2024/01/30 07:10:38;;;;;;;1999.90;999.90;;;7.30;99.90;;;;;;5000117;28;20041;-80
2024/01/30 07:13:05;;;;;;;1999.90;999.90;;;7.00;99.90;;;;;;4999241;28;20045;-80
2024/01/30 07:15:31;;;;;;;1999.90;999.90;;;7.20;99.90;;;;;;5000171;28;20465;-81
2024/01/30 07:17:57;;;;;;;1999.90;999.90;;;7.00;99.90;;;;;;5000651;28;20034;-78
2024/01/30 07:20:23;;;;;;;1999.90;999.90;;;7.00;99.90;;;;;;5015556;28;20049;-81
2024/01/30 07:22:49;;;;;;;1999.90;999.90;;;7.00;99.90;;;;;;5001302;28;20498;-79
2024/01/30 07:25:16;;;;;;;1999.90;999.90;;;7.10;99.90;;;;;;5000123;28;20048;-81
2024/01/30 07:27:42;;;;;;;1999.90;999.90;;;7.10;99.90;;;;;;5001186;28;20042;-79
2024/01/30 07:30:08;;;;;;;1999.90;999.90;;;7.10;99.90;;;;;;5003195;28;20129;-82
2024/01/30 07:32:36;;;;;;;1999.90;999.90;;;7.10;99.90;;;;;;5019600;28;20041;-85
2024/01/30 07:35:02;;;;;;;1999.90;999.90;;;7.10;99.90;;;;;;5003356;28;20494;-83
2024/01/30 07:37:28;;;;;;;1999.90;999.90;;;7.10;99.90;;;;;;5003588;28;20072;-84
2024/01/30 07:39:54;;;;;;;1999.90;999.90;;;8.10;99.90;;;;;;5004386;28;20100;-84
2024/01/30 07:42:20;;;;;;;1999.90;999.90;;;8.30;99.90;;;;;;5004964;28;20034;-84
2024/01/30 07:44:45;;;;;;;1999.90;999.90;;;7.80;99.90;;;;;;5020995;28;20038;-81
2024/01/30 07:47:11;;;;;;;1999.90;999.90;;;7.70;99.90;;;;;;5000975;28;20522;-80
2024/01/30 07:49:40;;;;;;;1999.90;999.90;;;8.40;99.90;;;;;;5003009;28;20042;-81
2024/01/30 07:52:07;;;;;;;1999.90;999.90;;;6.90;99.90;;;;;;5002727;28;20038;-81
2024/01/30 07:54:47;;;;;;;1999.90;999.90;;;7.50;99.90;;;;;;5019387;28;20065;-82
2024/01/30 07:57:13;;;;;;;1999.90;999.90;;;7.20;99.90;;;;;;5002106;28;20042;-81
2024/01/30 07:59:39;;;;;;;1999.90;999.90;;;7.20;99.90;;;;;;5020968;28;20117;-84
2024/01/30 08:02:04;;;;;;;1999.90;999.90;;;7.20;99.90;;;;;;5035018;28;20034;-85
2024/01/30 08:04:30;;;;;;;1999.90;999.90;;;7.20;99.90;;;;;;5003926;28;20037;-84
2024/01/30 08:06:56;;;;;;;1999.90;999.90;;;7.20;99.90;;;;;;5004986;28;20041;-83
2024/01/30 08:09:21;;;;;;;1999.90;999.90;;;7.20;99.90;;;;;;5021561;28;20041;-84
2024/01/30 08:11:47;;;;;;;1999.90;999.90;;;7.20;99.90;;;;;;5021554;28;20046;-83
2024/01/30 08:14:14;;;;;;;1999.90;999.90;;;7.20;99.90;;;;;;5005231;28;20044;-82
2024/01/30 08:16:39;;;;;;;1999.90;999.90;;;7.30;99.90;;;;;;5035847;28;20061;-84
2024/01/30 08:19:05;;;;;;;1999.90;999.90;;;7.30;99.90;;;;;;5005735;28;20038;-83
2024/01/30 08:21:36;;;;;;;1999.90;999.90;;;7.60;99.90;;;;;;5005107;28;20064;-84
2024/01/30 08:24:05;;;;;;;1999.90;999.90;;;7.40;99.90;;;;;;5005344;28;20037;-84
2024/01/30 08:26:32;;;;;;;1999.90;999.90;;;7.40;99.90;;;;;;5004889;28;20510;-83
2024/01/30 08:28:57;;;;;;;1999.90;999.90;;;7.50;99.90;;;;;;5004870;28;20069;-83
2024/01/30 08:31:23;;;;;;;1999.90;999.90;;;7.50;99.90;;;;;;5004674;28;20038;-83
2024/01/30 08:33:49;;;;;;;1999.90;999.90;;;7.50;99.90;;;;;;4986164;28;20117;-86
2024/01/30 08:36:16;;;;;;;1999.90;999.90;;;6.90;99.90;;;;;;5003310;28;20490;-84
2024/01/30 08:38:43;;;;;;;1999.90;999.90;;;7.60;99.90;;;;;;5005147;28;20121;-84
2024/01/30 08:41:09;;;;;;;1999.90;999.90;;;7.60;99.90;;;;;;5005277;28;20061;-84
2024/01/30 08:43:36;;;;;;;1999.90;999.90;;;7.60;99.90;;;;;;5004819;28;20487;-83
2024/01/30 08:46:02;;;;;;;1999.90;999.90;;;7.60;99.90;;;;;;5004444;28;20060;-85
2024/01/30 08:48:28;;;;;;;1999.90;999.90;;;7.70;99.90;;;;;;5004255;28;20048;-83
2024/01/30 08:50:54;;;;;;;1999.90;999.90;;;7.70;99.90;;;;;;5002421;28;20120;-83
2024/01/30 08:53:19;;;;;;;1999.90;999.90;;;7.80;99.90;;;;;;5002693;28;20394;-82
2024/01/30 08:55:45;;;;;;;1999.90;999.90;;;8.40;99.90;;;;;;5035736;28;20038;-82
2024/01/30 08:58:11;;;;;;;1999.90;999.90;;;9.00;99.90;;;;;;5019626;28;20038;-82
2024/01/30 09:00:37;;;;;;;1999.90;999.90;;;8.70;99.90;;;;;;5021590;28;20053;-81
2024/01/30 09:03:04;;;;;;;1999.90;999.90;;;9.00;99.90;;;;;;5021365;28;20522;-83
2024/01/30 09:05:29;;;;;;;1999.90;999.90;;;8.00;99.90;;;;;;5006911;28;20065;-84
2024/01/30 09:07:55;;;;;;;1999.90;999.90;;;8.30;99.90;;;;;;5023054;28;20071;-83
2024/01/30 09:10:21;;;;;;;1999.90;999.90;;;7.90;99.90;;;;;;5005290;28;20079;-85
2024/01/30 09:12:47;;;;;;;1999.90;999.90;;;8.00;99.90;;;;;;5005008;28;20045;-84
2024/01/30 09:15:13;;;;;;;1999.90;999.90;;;8.20;99.90;;;;;;5005686;28;20133;-83
2024/01/30 09:17:39;;;;;;;1999.90;999.90;;;9.30;99.90;;;;;;5005250;28;20633;-84
2024/01/30 09:20:06;;;;;;;1999.90;999.90;;;8.30;99.90;;;;;;5005667;28;20069;-83
2024/01/30 09:22:32;;;;;;;1999.90;999.90;;;8.40;99.90;;;;;;5004345;28;20037;-84
2024/01/30 09:25:00;;;;;;;1999.90;999.90;;;8.40;99.90;;;;;;5019912;28;20042;-83
2024/01/30 09:27:26;;;;;;;1999.90;999.90;;;8.50;99.90;;;;;;5004295;28;20049;-83
2024/01/30 09:29:52;;;;;;;1999.90;999.90;;;9.30;99.90;;;;;;5004298;28;20038;-83
2024/01/30 09:32:20;;;;;;;1999.90;999.90;;;8.60;99.90;;;;;;5019976;28;20034;-82
2024/01/30 09:34:46;;;;;;;1999.90;999.90;;;8.70;99.90;;;;;;5018143;28;20044;-82
2024/01/30 09:37:15;;;;;;;1999.90;999.90;;;9.60;99.90;;;;;;5001734;28;20046;-80
2024/01/30 09:39:40;;;;;;;1999.90;999.90;;;8.70;99.90;;;;;;5000731;28;20034;-80
2024/01/30 09:42:24;;;;;;;1999.90;999.90;;;9.10;99.90;;;;;;5000936;28;20037;-80
2024/01/30 09:44:52;;;;;;;1999.90;999.90;;;8.90;99.90;;;;;;4998399;28;20038;-80
2024/01/30 09:47:18;;;;;;;1999.90;999.90;;;9.10;99.90;;;;;;5002184;28;20041;-81
2024/01/30 09:49:44;;;;;;;1999.90;999.90;;;9.20;99.90;;;;;;5003978;28;20045;-80
2024/01/30 09:52:15;;;;;;;1999.90;999.90;;;9.30;99.90;;;;;;5003629;28;20057;-81
2024/01/30 09:54:41;;;;;;;1999.90;999.90;;;9.20;99.90;;;;;;5019745;28;20030;-80
2024/01/30 09:57:08;;;;;;;1999.90;999.90;;;10.10;99.90;;;;;;5003009;28;20437;-80
2024/01/30 09:59:34;;;;;;;1999.90;999.90;;;9.30;99.90;;;;;;5019541;28;20046;-81
2024/01/30 10:02:00;;;;;;;1999.90;999.90;;;10.00;99.90;;;;;;5004481;28;20038;-82
2024/01/30 10:04:26;;;;;;;1999.90;999.90;;;9.60;99.90;;;;;;5008961;28;20049;-82
2024/01/30 10:06:52;;;;;;;1999.90;999.90;;;10.20;99.90;;;;;;5009171;28;20120;-83
2024/01/30 10:09:17;;;;;;;1999.90;999.90;;;10.10;99.90;;;;;;5024374;28;20069;-83
2024/01/30 10:11:43;;;;;;;1999.90;999.90;;;9.80;99.90;;;;;;5007891;28;20046;-83
2024/01/30 10:14:09;;;;;;;1999.90;999.90;;;9.70;99.90;;;;;;5007477;28;20510;-82
2024/01/30 10:16:35;;;;;;;1999.90;999.90;;;9.70;99.90;;;;;;5006697;28;20417;-82
2024/01/30 10:19:02;;;;;;;1999.90;999.90;;;10.40;99.90;;;;;;5006924;28;20073;-83
2024/01/30 10:21:30;;;;;;;1999.90;999.90;;;9.70;99.90;;;;;;5022836;28;20560;-83
2024/01/30 10:23:56;;;;;;;1999.90;999.90;;;9.70;99.90;;;;;;5007429;28;20042;-85
2024/01/30 10:26:22;;;;;;;1999.90;999.90;;;9.80;99.90;;;;;;5008073;28;20044;-83
2024/01/30 10:28:48;;;;;;;1999.90;999.90;;;10.10;99.90;;;;;;5007182;28;20057;-85
2024/01/30 10:31:18;;;;;;;1974.70;999.90;;;9.80;99.90;;;;;;5008286;28;20577;-83
2024/01/30 10:33:45;;;;;;;1987.28;999.90;;;10.00;99.90;;;;;;5007288;28;20045;-84
2024/01/30 10:36:14;;;;;;;1999.90;999.90;;;9.90;99.90;;;;;;5008736;28;20062;-83
2024/01/30 10:38:42;;;;;;;1999.90;999.90;;;9.90;99.90;;;;;;5005762;28;20034;-83
2024/01/30 10:41:13;;;;;;;1999.90;999.90;;;9.90;99.90;;;;;;5009112;28;20038;-82
2024/01/30 10:43:42;;;;;;;1999.90;999.90;;;10.80;99.90;;;;;;5003236;28;20034;-83
2024/01/30 10:46:18;;;;;;;1999.90;999.90;;;9.90;99.90;;;;;;5007348;28;20049;-83
2024/01/30 10:48:50;;;;;;;1999.90;999.90;;;10.00;99.90;;;;;;5020343;28;20409;-83
2024/01/30 10:51:17;;;;;;;1986.38;999.90;;;10.70;99.90;;;;;;5005169;28;20050;-83
2024/01/30 10:53:46;;;;;;;1999.90;999.90;;;10.00;99.90;;;;;;5025173;28;20034;-83
2024/01/30 10:56:13;;;;;;;1999.90;999.90;;;10.00;99.90;;;;;;5009808;28;20042;-82
2024/01/30 10:58:39;;;;;;;1999.90;999.90;;;11.00;99.90;;;;;;5008380;28;20509;-82
2024/01/30 11:01:07;;;;;;;1999.90;999.90;;;10.20;99.90;;;;;;5026330;28;20049;-82
2024/01/30 11:03:36;;;;;;;1999.90;999.90;;;10.00;99.90;;;;;;5009903;28;20102;-82
2024/01/30 11:06:03;;;;;;;1999.90;999.90;;;10.10;99.90;;;;;;5027057;28;20034;-83
2024/01/30 11:08:31;;;;;;;1999.90;999.90;;;10.10;99.90;;;;;;5026314;28;20040;-82
2024/01/30 11:10:58;;;;;;;1999.90;999.90;;;10.50;99.90;;;;;;5023886;28;20041;-82
2024/01/30 11:13:31;;;;;;;1999.90;999.90;;;10.00;99.90;;;;;;5008898;28;20038;-82
2024/01/30 11:16:04;;;;;;;1999.90;999.90;;;10.10;99.90;;;;;;4999898;28;20056;-84
2024/01/30 11:18:31;;;;;;;1999.90;999.90;;;10.50;99.90;;;;;;5004777;28;20091;-83
2024/01/30 11:20:58;;;;;;;1999.90;999.90;;;10.10;99.90;;;;;;5008164;28;20034;-83
2024/01/30 11:23:26;;;;;;;1999.90;999.90;;;10.60;99.90;;;;;;5008177;28;20229;-80
2024/01/30 11:25:53;;;;;;;1999.90;999.90;;;9.80;99.90;;;;;;5003112;28;20034;-81
2024/01/30 11:28:22;;;;;;;1999.90;999.90;;;10.40;99.90;;;;;;5005218;28;20041;-82
2024/01/30 11:30:50;;;;;;;1900.88;999.90;;;10.20;99.90;;;;;;5004140;28;20048;-81
2024/01/30 11:33:30;;;;;;;1999.90;999.90;;;10.90;99.90;;;;;;5021949;28;20037;-81
2024/01/30 11:35:59;;;;;;;1999.90;999.90;;;11.00;99.90;;;;;;5002619;28;20117;-80
2024/01/30 11:38:27;;;;;;;1999.90;999.90;;;10.40;99.90;;;;;;5020248;28;20467;-80
2024/01/30 11:40:59;;;;;;;1999.90;999.90;;;10.50;99.90;;;;;;5005299;28;20034;-81
2024/01/30 11:43:25;;;;;;;1999.90;999.90;;;10.20;99.90;;;;;;5021654;28;20565;-81
2024/01/30 11:45:51;;;;;;;1999.90;999.90;;;10.20;99.90;;;;;;5020804;28;20046;-80
2024/01/30 11:48:17;;;;;;;1999.90;999.90;;;10.20;99.90;;;;;;5004265;28;20049;-80
2024/01/30 11:50:44;;;;;;;1999.90;999.90;;;10.60;99.90;;;;;;5004037;28;20041;-81
2024/01/30 11:53:10;;;;;;;1999.90;999.90;;;10.80;99.90;;;;;;5004434;28;20041;-79
2024/01/30 11:55:37;;;;;;;1999.90;999.90;;;11.10;99.90;;;;;;5003648;28;20045;-81
2024/01/30 11:58:06;;;;;;;1999.90;999.90;;;10.80;99.90;;;;;;5003989;28;20052;-81
2024/01/30 12:00:33;;;;;;;1999.90;999.90;;;10.20;99.90;;;;;;5019543;28;20033;-83
2024/01/30 12:03:00;;;;;;;1999.90;999.90;;;10.10;99.90;;;;;;5007310;28;20042;-84